QTR15Q OTHH-KJFK
Flight info
| Callsign | QTR15Q |
|---|---|
| Flight time | N/A |
| Altitude | 28000 |
| Route | TULUB B457 NARMI J735 KFA H741 JBL L768 RAF/N0497F300 L768 MODAD B544 ALE M861 NISAP UM861 BELSU UA17 YAVRU UA4 ERKAL UL615 DIGBO UQ26 TUDBU Q26 ETUBA T226 NAVOD DCT PADGU/N0488F320 DCT KEROP DCT SASAL DCT SUBEN T161 AKINI T159 PETIX Z744 COSJE T892 RIDSU Z114 ADENU L608 DENUT L610 KOPUL Q63 ICTAM L179 SAWPE DCT UNFIT DCT LEDGO DCT UNLID DCT ELSOX/M084F340 DCT DINIM DCT 52N020W 52N030W 52N040W 51N050W DCT ALLRY/N0484F340 N468A TUSKY DCT PLYMM PARCH4 |
| Aircraft | B77W/H-SDE1E2E3FGHIJ2J3J4J5M1RWXY/LB1D1 |
Departure
| Time | 2026-05-04 02:01 |
|---|---|
| Airport | Hamad International Airport (OTHH) |
Arrival
| Time | N/A |
|---|---|
| Airport | John F. Kennedy International Airport (KJFK) |
| Time | Latitude | Longitude | Altitude | Speed | Heading |
|---|---|---|---|---|---|
| 2026-05-04 01:29 | 25.26101 | 51.61071 | 15 ft | 0 kts | 156° |
| 2026-05-04 01:52 | 25.26103 | 51.61069 | 15 ft | 1 kts | 156° |
| 2026-05-04 01:52 | 25.26115 | 51.61064 | 15 ft | 2 kts | 156° |
| 2026-05-04 01:53 | 25.26136 | 51.61054 | 15 ft | 3 kts | 156° |
| 2026-05-04 01:53 | 25.26159 | 51.61043 | 15 ft | 3 kts | 156° |
| 2026-05-04 01:53 | 25.26183 | 51.61031 | 15 ft | 3 kts | 157° |
| 2026-05-04 01:53 | 25.26201 | 51.61026 | 15 ft | 1 kts | 185° |
| 2026-05-04 01:54 | 25.26210 | 51.61029 | 15 ft | 1 kts | 205° |
| 2026-05-04 01:54 | 25.26218 | 51.61034 | 15 ft | 1 kts | 215° |
| 2026-05-04 01:54 | 25.26220 | 51.61035 | 15 ft | 0 kts | 216° |
| 2026-05-04 01:55 | 25.26217 | 51.61033 | 15 ft | 2 kts | 220° |
| 2026-05-04 01:55 | 25.26199 | 51.61006 | 15 ft | 6 kts | 243° |
| 2026-05-04 01:56 | 25.26179 | 51.60954 | 16 ft | 8 kts | 248° |
| 2026-05-04 01:56 | 25.26158 | 51.60896 | 17 ft | 8 kts | 250° |
| 2026-05-04 01:56 | 25.26139 | 51.60836 | 18 ft | 8 kts | 250° |
| 2026-05-04 01:56 | 25.26117 | 51.60772 | 18 ft | 9 kts | 250° |
| 2026-05-04 01:57 | 25.26092 | 51.60696 | 18 ft | 11 kts | 250° |
| 2026-05-04 01:57 | 25.26064 | 51.60614 | 19 ft | 10 kts | 249° |
| 2026-05-04 01:57 | 25.26030 | 51.60558 | 20 ft | 8 kts | 209° |
| 2026-05-04 01:57 | 25.25970 | 51.60564 | 20 ft | 9 kts | 161° |
| 2026-05-04 01:58 | 25.25901 | 51.60591 | 20 ft | 11 kts | 160° |
| 2026-05-04 01:58 | 25.25832 | 51.60621 | 19 ft | 9 kts | 157° |
| 2026-05-04 01:58 | 25.25767 | 51.60650 | 18 ft | 10 kts | 158° |
| 2026-05-04 01:58 | 25.25698 | 51.60682 | 18 ft | 9 kts | 158° |
| 2026-05-04 01:59 | 25.25639 | 51.60703 | 18 ft | 8 kts | 177° |
| 2026-05-04 01:59 | 25.25592 | 51.60681 | 18 ft | 7 kts | 226° |
| 2026-05-04 01:59 | 25.25567 | 51.60621 | 19 ft | 9 kts | 249° |
| 2026-05-04 01:59 | 25.25569 | 51.60551 | 20 ft | 8 kts | 304° |
| 2026-05-04 02:00 | 25.25608 | 51.60520 | 21 ft | 7 kts | 337° |
| 2026-05-04 02:00 | 25.25764 | 51.60451 | 21 ft | 53 kts | 339° |
| 2026-05-04 02:00 | 25.26318 | 51.60207 | 24 ft | 116 kts | 338° |
| 2026-05-04 02:00 | 25.27259 | 51.59789 | 28 ft | 172 kts | 338° |
| 2026-05-04 02:01 | 25.28515 | 51.59230 | 152 ft | 210 kts | 338° |
| 2026-05-04 02:01 | 25.29889 | 51.58618 | 778 ft | 217 kts | 338° |
| 2026-05-04 02:01 | 25.31244 | 51.57990 | 1797 ft | 212 kts | 337° |
| 2026-05-04 02:01 | 25.32607 | 51.57381 | 2284 ft | 219 kts | 339° |
| 2026-05-04 02:02 | 25.34115 | 51.56735 | 2333 ft | 244 kts | 339° |
| 2026-05-04 02:02 | 25.35752 | 51.56042 | 2650 ft | 259 kts | 339° |
| 2026-05-04 02:02 | 25.37442 | 51.55291 | 3271 ft | 261 kts | 338° |
| 2026-05-04 02:02 | 25.39125 | 51.54535 | 3950 ft | 261 kts | 337° |
| 2026-05-04 02:03 | 25.40812 | 51.53784 | 4500 ft | 266 kts | 337° |
| 2026-05-04 02:03 | 25.42546 | 51.53015 | 5068 ft | 270 kts | 337° |
| 2026-05-04 02:03 | 25.44291 | 51.52240 | 5660 ft | 272 kts | 336° |
| 2026-05-04 02:03 | 25.46052 | 51.51458 | 6251 ft | 275 kts | 336° |
| 2026-05-04 02:04 | 25.47880 | 51.50773 | 6748 ft | 281 kts | 350° |
| 2026-05-04 02:04 | 25.49834 | 51.50844 | 7248 ft | 288 kts | 9° |
| 2026-05-04 02:04 | 25.51803 | 51.51416 | 7824 ft | 291 kts | 13° |
| 2026-05-04 02:04 | 25.53744 | 51.52058 | 8360 ft | 293 kts | 13° |
| 2026-05-04 02:05 | 25.55699 | 51.52707 | 8896 ft | 295 kts | 13° |
| 2026-05-04 02:05 | 25.57666 | 51.53354 | 9445 ft | 296 kts | 13° |
| 2026-05-04 02:05 | 25.59652 | 51.54004 | 9902 ft | 299 kts | 13° |
| 2026-05-04 02:05 | 25.61663 | 51.54662 | 9987 ft | 300 kts | 14° |
| 2026-05-04 02:06 | 25.63667 | 51.55313 | 10020 ft | 307 kts | 12° |
| 2026-05-04 02:06 | 25.65827 | 51.55748 | 10143 ft | 322 kts | 3° |
| 2026-05-04 02:06 | 25.68122 | 51.55778 | 10301 ft | 336 kts | 354° |
| 2026-05-04 02:06 | 25.70489 | 51.55344 | 10467 ft | 350 kts | 343° |
| 2026-05-04 02:07 | 25.72749 | 51.54277 | 10631 ft | 364 kts | 333° |
| 2026-05-04 02:07 | 25.75112 | 51.53066 | 10918 ft | 375 kts | 337° |
| 2026-05-04 02:07 | 25.77568 | 51.52003 | 11386 ft | 381 kts | 339° |
| 2026-05-04 02:07 | 25.80037 | 51.51014 | 11929 ft | 383 kts | 340° |
| 2026-05-04 02:08 | 25.82489 | 51.49789 | 12438 ft | 387 kts | 330° |
| 2026-05-04 02:08 | 25.84733 | 51.48080 | 12882 ft | 392 kts | 320° |
| 2026-05-04 02:08 | 25.86655 | 51.45957 | 13366 ft | 396 kts | 311° |
| 2026-05-04 02:08 | 25.88406 | 51.43552 | 13899 ft | 399 kts | 309° |
| 2026-05-04 02:09 | 25.90118 | 51.41144 | 14405 ft | 402 kts | 309° |
| 2026-05-04 02:09 | 25.91858 | 51.38683 | 15013 ft | 402 kts | 308° |
| 2026-05-04 02:09 | 25.93543 | 51.36291 | 15857 ft | 394 kts | 308° |
| 2026-05-04 02:09 | 25.95230 | 51.33892 | 16539 ft | 392 kts | 307° |
| 2026-05-04 02:10 | 25.96874 | 51.31505 | 16998 ft | 395 kts | 304° |
| 2026-05-04 02:10 | 25.98279 | 51.28849 | 17391 ft | 400 kts | 297° |
| 2026-05-04 02:10 | 25.99579 | 51.26084 | 17875 ft | 403 kts | 297° |
| 2026-05-04 02:10 | 26.00857 | 51.23350 | 18358 ft | 405 kts | 297° |
| 2026-05-04 02:11 | 26.02166 | 51.20549 | 18800 ft | 409 kts | 297° |
| 2026-05-04 02:11 | 26.03477 | 51.17743 | 19207 ft | 413 kts | 297° |
| 2026-05-04 02:11 | 26.04812 | 51.14884 | 19654 ft | 416 kts | 296° |
| 2026-05-04 02:11 | 26.06130 | 51.12062 | 20105 ft | 418 kts | 296° |
| 2026-05-04 02:12 | 26.07477 | 51.09175 | 20543 ft | 421 kts | 296° |
| 2026-05-04 02:12 | 26.08822 | 51.06289 | 20984 ft | 424 kts | 296° |
| 2026-05-04 02:12 | 26.10186 | 51.03364 | 21430 ft | 426 kts | 296° |
| 2026-05-04 02:12 | 26.11538 | 51.00458 | 21847 ft | 428 kts | 295° |
| 2026-05-04 02:13 | 26.12805 | 50.97454 | 22251 ft | 430 kts | 292° |
| 2026-05-04 02:13 | 26.14036 | 50.94422 | 22624 ft | 434 kts | 292° |
| 2026-05-04 02:13 | 26.15295 | 50.91327 | 23012 ft | 436 kts | 292° |
| 2026-05-04 02:13 | 26.16546 | 50.88260 | 23428 ft | 437 kts | 292° |
| 2026-05-04 02:14 | 26.17802 | 50.85183 | 23860 ft | 438 kts | 292° |
| 2026-05-04 02:14 | 26.19058 | 50.82112 | 24291 ft | 438 kts | 292° |
| 2026-05-04 02:14 | 26.20315 | 50.79036 | 24679 ft | 440 kts | 292° |
| 2026-05-04 02:14 | 26.21579 | 50.75946 | 25040 ft | 442 kts | 292° |
| 2026-05-04 02:15 | 26.22854 | 50.72826 | 25454 ft | 442 kts | 292° |
| 2026-05-04 02:15 | 26.24130 | 50.69705 | 25860 ft | 443 kts | 292° |
| 2026-05-04 02:15 | 26.25314 | 50.66573 | 26218 ft | 443 kts | 287° |
| 2026-05-04 02:15 | 26.26102 | 50.63251 | 26536 ft | 443 kts | 279° |
| 2026-05-04 02:16 | 26.26574 | 50.59883 | 26871 ft | 444 kts | 277° |
| 2026-05-04 02:16 | 26.27017 | 50.56470 | 27227 ft | 445 kts | 277° |
| 2026-05-04 02:16 | 26.27456 | 50.53062 | 27609 ft | 445 kts | 277° |
| 2026-05-04 02:16 | 26.27895 | 50.49660 | 27988 ft | 446 kts | 277° |
| 2026-05-04 02:17 | 26.28333 | 50.46257 | 28323 ft | 447 kts | 277° |
| 2026-05-04 02:17 | 26.28772 | 50.42837 | 28638 ft | 448 kts | 277° |
| 2026-05-04 02:17 | 26.29216 | 50.39379 | 28963 ft | 449 kts | 277° |
| 2026-05-04 02:17 | 26.29657 | 50.35938 | 29356 ft | 448 kts | 277° |
| 2026-05-04 02:18 | 26.30270 | 50.32592 | 29755 ft | 449 kts | 283° |
| 2026-05-04 02:18 | 26.31286 | 50.29282 | 29818 ft | 452 kts | 289° |
| 2026-05-04 02:18 | 26.33614 | 50.22850 | 29827 ft | 446 kts | 289° |
| 2026-05-04 02:19 | 26.35927 | 50.16454 | 29825 ft | 447 kts | 289° |
| 2026-05-04 02:19 | 26.38250 | 50.10006 | 29825 ft | 447 kts | 289° |
| 2026-05-04 02:20 | 26.40563 | 50.03570 | 29824 ft | 448 kts | 289° |
| 2026-05-04 02:20 | 26.42869 | 49.97135 | 29827 ft | 447 kts | 289° |
| 2026-05-04 02:21 | 26.45163 | 49.90725 | 29830 ft | 448 kts | 289° |
| 2026-05-04 02:21 | 26.47503 | 49.84256 | 29824 ft | 449 kts | 291° |
| 2026-05-04 02:22 | 26.50861 | 49.78362 | 29828 ft | 457 kts | 306° |
| 2026-05-04 02:22 | 26.55638 | 49.73622 | 29828 ft | 469 kts | 321° |
| 2026-05-04 02:23 | 26.61143 | 49.69720 | 29837 ft | 470 kts | 322° |
| 2026-05-04 02:23 | 26.66687 | 49.65812 | 29840 ft | 470 kts | 322° |
| 2026-05-04 02:24 | 26.72194 | 49.61910 | 29844 ft | 470 kts | 322° |
| 2026-05-04 02:24 | 26.77707 | 49.57990 | 29846 ft | 469 kts | 321° |
| 2026-05-04 02:25 | 26.83214 | 49.54046 | 29842 ft | 470 kts | 322° |
| 2026-05-04 02:25 | 26.88724 | 49.50116 | 29843 ft | 470 kts | 321° |
| 2026-05-04 02:26 | 26.94219 | 49.46194 | 29834 ft | 469 kts | 321° |
| 2026-05-04 02:26 | 26.99492 | 49.41984 | 29839 ft | 460 kts | 311° |
| 2026-05-04 02:27 | 27.03506 | 49.36550 | 29829 ft | 449 kts | 297° |
| 2026-05-04 02:27 | 27.06599 | 49.30490 | 29843 ft | 448 kts | 295° |
| 2026-05-04 02:28 | 27.09652 | 49.24419 | 29836 ft | 447 kts | 295° |
| 2026-05-04 02:28 | 27.12695 | 49.18359 | 29832 ft | 448 kts | 294° |
| 2026-05-04 02:29 | 27.15732 | 49.12303 | 29832 ft | 447 kts | 295° |
| 2026-05-04 02:29 | 27.18779 | 49.06218 | 29829 ft | 448 kts | 295° |
| 2026-05-04 02:30 | 27.21820 | 49.00137 | 29829 ft | 447 kts | 295° |
| 2026-05-04 02:30 | 27.24860 | 48.94046 | 29831 ft | 448 kts | 295° |
| 2026-05-04 02:31 | 27.27887 | 48.87973 | 29832 ft | 445 kts | 294° |
| 2026-05-04 02:31 | 27.30906 | 48.81904 | 29831 ft | 448 kts | 294° |
| 2026-05-04 02:32 | 27.33934 | 48.75810 | 29829 ft | 446 kts | 294° |
| 2026-05-04 02:32 | 27.36961 | 48.69711 | 29831 ft | 445 kts | 294° |
| 2026-05-04 02:33 | 27.39957 | 48.63664 | 29836 ft | 445 kts | 294° |
| 2026-05-04 02:33 | 27.42951 | 48.57613 | 29833 ft | 443 kts | 294° |
| 2026-05-04 02:34 | 27.45959 | 48.51524 | 29836 ft | 444 kts | 294° |
| 2026-05-04 02:34 | 27.48950 | 48.45462 | 29841 ft | 444 kts | 294° |
| 2026-05-04 02:35 | 27.51939 | 48.39395 | 29847 ft | 444 kts | 294° |
| 2026-05-04 02:35 | 27.54930 | 48.33317 | 29868 ft | 443 kts | 294° |
| 2026-05-04 02:36 | 27.57899 | 48.27275 | 29879 ft | 441 kts | 294° |
| 2026-05-04 02:36 | 27.60874 | 48.21222 | 29874 ft | 443 kts | 294° |
| 2026-05-04 02:37 | 27.63846 | 48.15172 | 29876 ft | 442 kts | 294° |
| 2026-05-04 02:37 | 27.66810 | 48.09127 | 29888 ft | 443 kts | 294° |
| 2026-05-04 02:38 | 27.69777 | 48.03069 | 29885 ft | 441 kts | 294° |
| 2026-05-04 02:38 | 27.72745 | 47.96981 | 29887 ft | 443 kts | 293° |
| 2026-05-04 02:39 | 27.75711 | 47.90890 | 29893 ft | 444 kts | 293° |
| 2026-05-04 02:39 | 27.78660 | 47.84827 | 29896 ft | 441 kts | 293° |
| 2026-05-04 02:40 | 27.81607 | 47.78757 | 29891 ft | 442 kts | 294° |
| 2026-05-04 02:40 | 27.84416 | 47.72643 | 29895 ft | 437 kts | 287° |
| 2026-05-04 02:41 | 27.86469 | 47.66195 | 29899 ft | 436 kts | 285° |
| 2026-05-04 02:41 | 27.88458 | 47.59781 | 29901 ft | 435 kts | 285° |
| 2026-05-04 02:42 | 27.90452 | 47.53343 | 29908 ft | 435 kts | 285° |
| 2026-05-04 02:42 | 27.92446 | 47.46897 | 29902 ft | 434 kts | 285° |
| 2026-05-04 02:43 | 27.94427 | 47.40478 | 29901 ft | 436 kts | 285° |
| 2026-05-04 02:43 | 27.96429 | 47.33985 | 29900 ft | 436 kts | 284° |
| 2026-05-04 02:44 | 27.98406 | 47.27557 | 29909 ft | 434 kts | 285° |
| 2026-05-04 02:44 | 28.00379 | 47.21134 | 29899 ft | 434 kts | 285° |
| 2026-05-04 02:45 | 28.02354 | 47.14690 | 29906 ft | 434 kts | 285° |
| 2026-05-04 02:45 | 28.04331 | 47.08229 | 29907 ft | 434 kts | 285° |
| 2026-05-04 02:46 | 28.06300 | 47.01778 | 29914 ft | 435 kts | 285° |
| 2026-05-04 02:46 | 28.08267 | 46.95325 | 29915 ft | 434 kts | 284° |
| 2026-05-04 02:47 | 28.10236 | 46.88852 | 29921 ft | 436 kts | 284° |
| 2026-05-04 02:47 | 28.12339 | 46.82396 | 29918 ft | 437 kts | 286° |
| 2026-05-04 02:48 | 28.14494 | 46.75982 | 29918 ft | 437 kts | 286° |
| 2026-05-04 02:48 | 28.16652 | 46.69527 | 29930 ft | 436 kts | 286° |
| 2026-05-04 02:49 | 28.18791 | 46.63102 | 29935 ft | 436 kts | 287° |
| 2026-05-04 02:49 | 28.20929 | 46.56664 | 29937 ft | 437 kts | 286° |
| 2026-05-04 02:50 | 28.23061 | 46.50229 | 29932 ft | 437 kts | 286° |
| 2026-05-04 02:50 | 28.25200 | 46.43756 | 29927 ft | 439 kts | 286° |
| 2026-05-04 02:51 | 28.27335 | 46.37288 | 29926 ft | 437 kts | 286° |
| 2026-05-04 02:51 | 28.29473 | 46.30792 | 29935 ft | 441 kts | 286° |
| 2026-05-04 02:52 | 28.31605 | 46.24309 | 29927 ft | 438 kts | 285° |
| 2026-05-04 02:52 | 28.33727 | 46.17842 | 29922 ft | 440 kts | 285° |
| 2026-05-04 02:53 | 28.35862 | 46.11322 | 29919 ft | 439 kts | 286° |
| 2026-05-04 02:53 | 28.38233 | 46.04886 | 29920 ft | 443 kts | 288° |
| 2026-05-04 02:54 | 28.40645 | 45.98471 | 29925 ft | 440 kts | 288° |
| 2026-05-04 02:54 | 28.43034 | 45.92070 | 29930 ft | 442 kts | 288° |
| 2026-05-04 02:55 | 28.46610 | 45.82447 | 29940 ft | 441 kts | 288° |
| 2026-05-04 02:56 | 28.48994 | 45.76011 | 29946 ft | 441 kts | 288° |
| 2026-05-04 02:56 | 28.51375 | 45.69565 | 29943 ft | 441 kts | 288° |
| 2026-05-04 02:57 | 28.53740 | 45.63153 | 29940 ft | 441 kts | 288° |
| 2026-05-04 02:57 | 28.56109 | 45.56718 | 29938 ft | 441 kts | 288° |
| 2026-05-04 02:58 | 28.58469 | 45.50293 | 29931 ft | 442 kts | 288° |
| 2026-05-04 02:58 | 28.60837 | 45.43840 | 29933 ft | 442 kts | 288° |
| 2026-05-04 02:59 | 28.63204 | 45.37374 | 29934 ft | 443 kts | 288° |
| 2026-05-04 02:59 | 28.65571 | 45.30899 | 29949 ft | 442 kts | 287° |
| 2026-05-04 03:00 | 28.67928 | 45.24440 | 29951 ft | 441 kts | 287° |
| 2026-05-04 03:00 | 28.70281 | 45.17980 | 29952 ft | 441 kts | 287° |
| 2026-05-04 03:01 | 28.72631 | 45.11515 | 29952 ft | 443 kts | 287° |
| 2026-05-04 03:01 | 28.74969 | 45.05074 | 29945 ft | 441 kts | 287° |
| 2026-05-04 03:02 | 28.77303 | 44.98631 | 29951 ft | 442 kts | 287° |
| 2026-05-04 03:02 | 28.79643 | 44.92164 | 29959 ft | 440 kts | 287° |
| 2026-05-04 03:03 | 28.81969 | 44.85718 | 29972 ft | 442 kts | 287° |
| 2026-05-04 03:03 | 28.84309 | 44.79226 | 29968 ft | 441 kts | 287° |
| 2026-05-04 03:04 | 28.86982 | 44.72929 | 29963 ft | 448 kts | 297° |
| 2026-05-04 03:04 | 28.90580 | 44.67062 | 29965 ft | 452 kts | 299° |
| 2026-05-04 03:05 | 28.94198 | 44.61227 | 29965 ft | 450 kts | 298° |
| 2026-05-04 03:05 | 28.97808 | 44.55383 | 29962 ft | 451 kts | 299° |
| 2026-05-04 03:06 | 29.01415 | 44.49528 | 29963 ft | 450 kts | 298° |
| 2026-05-04 03:06 | 29.05010 | 44.43682 | 29957 ft | 450 kts | 298° |
| 2026-05-04 03:07 | 29.08597 | 44.37840 | 29957 ft | 449 kts | 298° |
| 2026-05-04 03:07 | 29.12205 | 44.31952 | 29966 ft | 450 kts | 298° |
| 2026-05-04 03:08 | 29.15785 | 44.26102 | 29964 ft | 449 kts | 298° |
| 2026-05-04 03:08 | 29.19358 | 44.20255 | 29966 ft | 450 kts | 298° |
| 2026-05-04 03:09 | 29.22919 | 44.14420 | 29966 ft | 449 kts | 298° |
| 2026-05-04 03:09 | 29.26501 | 44.08542 | 29967 ft | 447 kts | 298° |
| 2026-05-04 03:10 | 29.30055 | 44.02702 | 29964 ft | 446 kts | 298° |
| 2026-05-04 03:10 | 29.33585 | 43.96892 | 29965 ft | 449 kts | 298° |
| 2026-05-04 03:11 | 29.37159 | 43.91004 | 29970 ft | 445 kts | 298° |
| 2026-05-04 03:11 | 29.40680 | 43.85190 | 29967 ft | 450 kts | 298° |
| 2026-05-04 03:12 | 29.44233 | 43.79319 | 29963 ft | 448 kts | 298° |
| 2026-05-04 03:12 | 29.47815 | 43.73389 | 29963 ft | 450 kts | 298° |
| 2026-05-04 03:13 | 29.51344 | 43.67543 | 29954 ft | 447 kts | 298° |
| 2026-05-04 03:13 | 29.54888 | 43.61660 | 29948 ft | 447 kts | 298° |
| 2026-05-04 03:14 | 29.58427 | 43.55777 | 29944 ft | 448 kts | 298° |
| 2026-05-04 03:14 | 29.61946 | 43.49920 | 29937 ft | 447 kts | 298° |
| 2026-05-04 03:15 | 29.65334 | 43.43966 | 29946 ft | 444 kts | 296° |
| 2026-05-04 03:15 | 29.68672 | 43.37992 | 29939 ft | 444 kts | 296° |
| 2026-05-04 03:16 | 29.72004 | 43.32034 | 29968 ft | 444 kts | 295° |
| 2026-05-04 03:16 | 29.75331 | 43.26088 | 29969 ft | 441 kts | 295° |
| 2026-05-04 03:17 | 29.78660 | 43.20126 | 29969 ft | 444 kts | 296° |
| 2026-05-04 03:17 | 29.81982 | 43.14177 | 29981 ft | 443 kts | 295° |
| 2026-05-04 03:18 | 29.85310 | 43.08207 | 29979 ft | 441 kts | 295° |
| 2026-05-04 03:18 | 29.88607 | 43.02283 | 29978 ft | 441 kts | 296° |
| 2026-05-04 03:19 | 29.91914 | 42.96333 | 29981 ft | 442 kts | 295° |
| 2026-05-04 03:19 | 29.95207 | 42.90401 | 29978 ft | 439 kts | 296° |
| 2026-05-04 03:20 | 29.98517 | 42.84426 | 29975 ft | 443 kts | 296° |
| 2026-05-04 03:20 | 30.01821 | 42.78458 | 29975 ft | 440 kts | 296° |
| 2026-05-04 03:21 | 30.05133 | 42.72464 | 29985 ft | 442 kts | 296° |
| 2026-05-04 03:21 | 30.08413 | 42.66519 | 29981 ft | 442 kts | 295° |
| 2026-05-04 03:22 | 30.11710 | 42.60536 | 29978 ft | 442 kts | 295° |
| 2026-05-04 03:22 | 30.15015 | 42.54527 | 29982 ft | 441 kts | 295° |
| 2026-05-04 03:23 | 30.18289 | 42.48568 | 29973 ft | 442 kts | 295° |
| 2026-05-04 03:23 | 30.21581 | 42.42566 | 29976 ft | 440 kts | 295° |
| 2026-05-04 03:24 | 30.24865 | 42.36569 | 29982 ft | 441 kts | 295° |
| 2026-05-04 03:24 | 30.28124 | 42.30610 | 30003 ft | 440 kts | 295° |
| 2026-05-04 03:25 | 30.31381 | 42.24645 | 30011 ft | 441 kts | 295° |
| 2026-05-04 03:25 | 30.34665 | 42.18622 | 30011 ft | 440 kts | 295° |
| 2026-05-04 03:26 | 30.37919 | 42.12644 | 30006 ft | 441 kts | 295° |
| 2026-05-04 03:26 | 30.41188 | 42.06631 | 30003 ft | 440 kts | 295° |
| 2026-05-04 03:27 | 30.44439 | 42.00641 | 30010 ft | 441 kts | 295° |
| 2026-05-04 03:27 | 30.47692 | 41.94638 | 30006 ft | 441 kts | 294° |
| 2026-05-04 03:28 | 30.50962 | 41.88596 | 30009 ft | 442 kts | 294° |
| 2026-05-04 03:28 | 30.54211 | 41.82582 | 30003 ft | 441 kts | 295° |
| 2026-05-04 03:29 | 30.57458 | 41.76564 | 30011 ft | 441 kts | 294° |
| 2026-05-04 03:29 | 30.60714 | 41.70517 | 30005 ft | 442 kts | 294° |
| 2026-05-04 03:30 | 30.63966 | 41.64471 | 30012 ft | 444 kts | 294° |
| 2026-05-04 03:30 | 30.67245 | 41.58365 | 30011 ft | 444 kts | 294° |
| 2026-05-04 03:31 | 30.70503 | 41.52290 | 30007 ft | 444 kts | 294° |
| 2026-05-04 03:31 | 30.73769 | 41.46190 | 30008 ft | 444 kts | 294° |
| 2026-05-04 03:32 | 30.77018 | 41.40110 | 30000 ft | 446 kts | 294° |
| 2026-05-04 03:32 | 30.80294 | 41.33974 | 30014 ft | 444 kts | 294° |
| 2026-05-04 03:33 | 30.83561 | 41.27841 | 30029 ft | 445 kts | 294° |
| 2026-05-04 03:33 | 30.86804 | 41.21747 | 30041 ft | 444 kts | 294° |
| 2026-05-04 03:34 | 30.90040 | 41.15656 | 30034 ft | 442 kts | 293° |
| 2026-05-04 03:34 | 30.93107 | 41.09417 | 30042 ft | 443 kts | 290° |
| 2026-05-04 03:35 | 30.95975 | 41.03127 | 30048 ft | 439 kts | 290° |
| 2026-05-04 03:35 | 30.98849 | 40.96849 | 30046 ft | 441 kts | 290° |
| 2026-05-04 03:36 | 31.01740 | 40.90547 | 30046 ft | 442 kts | 290° |
| 2026-05-04 03:36 | 31.04626 | 40.84259 | 30046 ft | 441 kts | 290° |
| 2026-05-04 03:37 | 31.07535 | 40.77914 | 30046 ft | 444 kts | 290° |
| 2026-05-04 03:37 | 31.10421 | 40.71618 | 30042 ft | 439 kts | 290° |
| 2026-05-04 03:38 | 31.13313 | 40.65288 | 30034 ft | 446 kts | 290° |
| 2026-05-04 03:38 | 31.16219 | 40.58930 | 30027 ft | 441 kts | 290° |
| 2026-05-04 03:39 | 31.19104 | 40.52601 | 30029 ft | 444 kts | 290° |
| 2026-05-04 03:39 | 31.21991 | 40.46260 | 30027 ft | 442 kts | 290° |
| 2026-05-04 03:40 | 31.24885 | 40.39890 | 30032 ft | 445 kts | 290° |
| 2026-05-04 03:40 | 31.27759 | 40.33556 | 30036 ft | 444 kts | 289° |
| 2026-05-04 03:41 | 31.30656 | 40.27159 | 30041 ft | 443 kts | 289° |
| 2026-05-04 03:41 | 31.33540 | 40.20779 | 30040 ft | 444 kts | 289° |
| 2026-05-04 03:42 | 31.36410 | 40.14421 | 30043 ft | 443 kts | 289° |
| 2026-05-04 03:42 | 31.39274 | 40.08064 | 30039 ft | 446 kts | 289° |
| 2026-05-04 03:43 | 31.42160 | 40.01652 | 30040 ft | 442 kts | 289° |
| 2026-05-04 03:43 | 31.45019 | 39.95280 | 30041 ft | 445 kts | 289° |
| 2026-05-04 03:44 | 31.47900 | 39.88853 | 30037 ft | 445 kts | 289° |
| 2026-05-04 03:44 | 31.50747 | 39.82495 | 30039 ft | 442 kts | 289° |
| 2026-05-04 03:45 | 31.53577 | 39.76159 | 30036 ft | 442 kts | 289° |
| 2026-05-04 03:45 | 31.56430 | 39.69761 | 30039 ft | 443 kts | 289° |
| 2026-05-04 03:46 | 31.59261 | 39.63403 | 30035 ft | 440 kts | 289° |
| 2026-05-04 03:46 | 31.62115 | 39.56978 | 30035 ft | 443 kts | 289° |
| 2026-05-04 03:47 | 31.64928 | 39.50641 | 30036 ft | 441 kts | 289° |
| 2026-05-04 03:47 | 31.67752 | 39.44263 | 30032 ft | 441 kts | 289° |
| 2026-05-04 03:48 | 31.70569 | 39.37895 | 30033 ft | 437 kts | 289° |
| 2026-05-04 03:48 | 31.73368 | 39.31551 | 30048 ft | 439 kts | 288° |
| 2026-05-04 03:49 | 31.76162 | 39.25208 | 30045 ft | 440 kts | 288° |
| 2026-05-04 03:49 | 31.79413 | 39.19081 | 30045 ft | 452 kts | 300° |
| 2026-05-04 03:49 | 31.81603 | 39.16358 | 30045 ft | 464 kts | 308° |
| 2026-05-04 03:50 | 31.84143 | 39.13990 | 30041 ft | 474 kts | 316° |